Time;durP1;ratioP1;P1;durP2;ratioP2;P2;SDS_P1;SDS_P2;PMS_P1;PMS_P2;Temp;Humidity;BMP_temperature;BMP_pressure;BME280_temperature;BME280_humidity;BME280_pressure;Samples;Min_cycle;Max_cycle;Signal;HPM_P1;HPM_P2
2022/12/27 00:01:51;;;;;;;9.55;2.60;;;3.20;99.90;;;;;;4988120;28;20497;-57
2022/12/27 00:04:17;;;;;;;9.95;2.67;;;3.70;99.90;;;;;;4988917;28;20046;-57
2022/12/27 00:06:42;;;;;;;9.65;2.80;;;3.40;99.90;;;;;;4988713;28;20492;-57
2022/12/27 00:09:08;;;;;;;6.68;2.30;;;3.30;99.90;;;;;;4988849;28;20125;-57
2022/12/27 00:11:34;;;;;;;9.40;2.70;;;3.30;99.90;;;;;;4989912;28;20046;-58
2022/12/27 00:14:05;;;;;;;9.40;2.72;;;3.30;99.90;;;;;;4971194;28;20050;-57
2022/12/27 00:16:32;;;;;;;9.30;2.67;;;3.10;99.90;;;;;;4989627;28;20073;-58
2022/12/27 00:18:58;;;;;;;8.10;2.65;;;3.30;99.90;;;;;;4988625;28;20046;-57
2022/12/27 00:21:24;;;;;;;8.80;3.28;;;3.20;99.90;;;;;;4981769;28;20378;-58
2022/12/27 00:23:53;;;;;;;9.15;2.67;;;3.50;99.90;;;;;;4984417;28;20039;-57
2022/12/27 00:26:27;;;;;;;11.15;3.33;;;3.40;99.90;;;;;;4969645;28;20450;-57
2022/12/27 00:28:53;;;;;;;8.88;2.58;;;3.10;99.90;;;;;;4970000;28;20485;-57
2022/12/27 00:31:20;;;;;;;8.32;2.63;;;3.20;99.90;;;;;;4969832;28;20410;-57
2022/12/27 00:33:48;;;;;;;10.93;3.20;;;3.20;99.90;;;;;;4968668;28;20109;-56
2022/12/27 00:36:17;;;;;;;8.93;2.85;;;3.20;99.90;;;;;;4967536;28;20051;-57
2022/12/27 00:38:43;;;;;;;9.02;3.10;;;3.30;99.90;;;;;;4969079;28;20039;-57
2022/12/27 00:41:09;;;;;;;10.60;2.80;;;3.20;99.90;;;;;;4968933;28;20086;-55
2022/12/27 00:43:35;;;;;;;10.45;3.60;;;3.60;99.90;;;;;;4970007;28;20129;-57
2022/12/27 00:46:01;;;;;;;9.18;3.17;;;3.30;99.90;;;;;;4969595;28;20126;-56
2022/12/27 00:48:27;;;;;;;7.68;2.95;;;3.10;99.90;;;;;;4969446;28;20043;-57
2022/12/27 00:51:14;;;;;;;11.65;2.90;;;3.10;99.90;;;;;;4968825;28;20122;-57
2022/12/27 00:53:41;;;;;;;11.90;3.38;;;3.10;99.90;;;;;;4972333;28;20054;-57
2022/12/27 00:56:09;;;;;;;14.00;3.60;;;3.40;99.90;;;;;;4987819;28;20065;-57
2022/12/27 00:58:35;;;;;;;9.50;2.65;;;3.20;99.90;;;;;;4987546;28;20089;-56
2022/12/27 01:01:18;;;;;;;8.75;2.90;;;3.50;99.90;;;;;;4988995;28;20552;-57
2022/12/27 01:03:45;;;;;;;7.82;2.70;;;3.70;99.90;;;;;;4988702;28;20054;-57
2022/12/27 01:06:13;;;;;;;11.93;2.90;;;3.20;99.90;;;;;;4987855;28;20124;-57
2022/12/27 01:08:39;;;;;;;13.52;3.05;;;3.40;99.90;;;;;;4988743;28;20074;-57
2022/12/27 01:11:06;;;;;;;6.90;2.42;;;3.70;99.90;;;;;;4988696;28;20138;-57
2022/12/27 01:13:33;;;;;;;8.15;2.17;;;3.60;99.90;;;;;;4988822;28;20097;-57
2022/12/27 01:15:58;;;;;;;9.38;2.55;;;3.40;99.90;;;;;;4988582;28;20057;-57
2022/12/27 01:18:24;;;;;;;11.65;3.10;;;3.50;99.90;;;;;;4988690;28;20050;-57
2022/12/27 01:20:50;;;;;;;7.40;2.20;;;3.30;99.90;;;;;;4980628;28;20047;-57
2022/12/27 01:23:16;;;;;;;11.07;2.70;;;3.50;99.90;;;;;;4977837;28;20097;-57
2022/12/27 01:25:41;;;;;;;12.52;3.58;;;3.50;99.90;;;;;;4968748;28;20053;-57
2022/12/27 01:28:07;;;;;;;11.68;3.05;;;3.40;99.90;;;;;;4969319;28;20050;-57
2022/12/27 01:30:33;;;;;;;11.30;2.80;;;3.80;99.90;;;;;;4969018;28;20073;-57
2022/12/27 01:32:59;;;;;;;9.55;2.33;;;3.40;99.90;;;;;;4969057;28;20569;-58
2022/12/27 01:35:24;;;;;;;12.98;2.63;;;3.70;99.90;;;;;;4968109;28;20057;-57
2022/12/27 01:37:50;;;;;;;11.18;2.50;;;3.70;99.90;;;;;;4968612;28;20525;-57
2022/12/27 01:40:16;;;;;;;10.68;2.50;;;3.90;99.90;;;;;;4968839;28;20042;-57
2022/12/27 01:42:51;;;;;;;9.05;2.50;;;3.50;99.90;;;;;;4968537;28;20045;-57
2022/12/27 01:45:26;;;;;;;8.02;2.45;;;3.50;99.90;;;;;;4968832;28;20050;-57
2022/12/27 01:48:14;;;;;;;9.55;2.70;;;3.40;99.90;;;;;;4967340;28;20051;-58
2022/12/27 01:50:52;;;;;;;9.25;2.65;;;3.40;99.90;;;;;;4968524;28;20082;-57
2022/12/27 01:53:23;;;;;;;8.98;2.42;;;3.30;99.90;;;;;;4968267;28;20126;-57
2022/12/27 01:56:06;;;;;;;10.18;2.78;;;3.20;99.90;;;;;;4966960;28;20536;-57
2022/12/27 01:58:36;;;;;;;11.55;2.78;;;3.30;99.90;;;;;;4968769;28;20493;-57
2022/12/27 02:01:04;;;;;;;9.15;2.63;;;3.20;99.90;;;;;;4983195;28;21016;-57
2022/12/27 02:03:36;;;;;;;7.07;2.40;;;3.30;99.90;;;;;;4968193;28;21017;-57
2022/12/27 02:06:04;;;;;;;5.63;1.23;;;3.50;99.90;;;;;;4982529;28;20046;-57
2022/12/27 02:08:38;;;;;;;11.85;2.67;;;3.50;99.90;;;;;;4967368;28;20400;-57
2022/12/27 02:11:06;;;;;;;12.25;2.38;;;3.60;99.90;;;;;;4968322;28;20786;-57
2022/12/27 02:13:34;;;;;;;11.10;2.40;;;3.50;99.90;;;;;;4979311;28;20579;-57
2022/12/27 02:16:00;;;;;;;8.13;2.08;;;3.90;99.90;;;;;;4987384;28;20461;-57
2022/12/27 02:18:26;;;;;;;13.85;2.67;;;4.00;99.90;;;;;;4987071;28;20046;-57
2022/12/27 02:21:07;;;;;;;7.07;1.98;;;4.00;99.90;;;;;;4980753;28;20051;-58
2022/12/27 02:24:02;;;;;;;12.98;2.80;;;4.10;99.90;;;;;;4979400;28;20781;-57
2022/12/27 02:26:49;;;;;;;7.88;2.15;;;4.00;99.90;;;;;;4986530;28;20126;-55
2022/12/27 02:29:33;;;;;;;12.18;2.70;;;4.10;99.90;;;;;;4987343;28;20108;-57
2022/12/27 02:32:04;;;;;;;5.38;1.77;;;4.20;99.90;;;;;;4985990;28;20050;-57
2022/12/27 02:34:42;;;;;;;7.45;2.30;;;4.30;99.90;;;;;;4987357;28;20125;-57
2022/12/27 02:37:11;;;;;;;5.90;2.15;;;4.00;99.90;;;;;;4986083;28;20459;-57
2022/12/27 02:39:41;;;;;;;9.70;2.13;;;4.20;99.90;;;;;;4987083;28;20070;-56
2022/12/27 02:53:02;;;;;;;12.80;3.17;;;4.20;99.90;;;;;;4987012;28;20073;-57
2022/12/27 02:53:52;;;;;;;11.10;3.13;;;3.90;99.90;;;;;;4986780;28;20082;-58
2022/12/27 02:57:08;;;;;;;8.15;2.33;;;3.90;99.90;;;;;;4986309;28;20057;-58
2022/12/27 03:03:20;;;;;;;11.38;2.92;;;4.00;99.90;;;;;;4986117;28;20476;-57
2022/12/27 03:18:05;;;;;;;11.88;3.28;;;4.10;99.90;;;;;;4986492;28;20088;-57
2022/12/27 03:26:04;;;;;;;10.85;2.88;;;3.90;99.90;;;;;;4965947;28;20133;-56
2022/12/27 03:34:31;;;;;;;12.68;3.75;;;4.00;99.90;;;;;;4985687;28;20050;-55
2022/12/27 03:40:02;;;;;;;12.50;3.05;;;4.20;99.90;;;;;;4985730;28;20119;-57
2022/12/27 03:45:20;;;;;;;8.85;2.38;;;4.10;99.90;;;;;;4985632;28;20064;-57
2022/12/27 03:48:02;;;;;;;7.72;2.05;;;4.20;99.90;;;;;;4985723;28;20189;-57
2022/12/27 03:50:35;;;;;;;10.55;2.15;;;4.00;99.90;;;;;;4983061;28;20143;-58
2022/12/27 03:53:09;;;;;;;10.40;1.98;;;5.40;99.90;;;;;;4985105;28;20046;-59
2022/12/27 03:55:36;;;;;;;8.25;2.30;;;4.30;99.90;;;;;;4984963;28;20414;-57
2022/12/27 03:58:02;;;;;;;10.20;1.85;;;4.40;99.90;;;;;;4984977;28;20057;-57
2022/12/27 04:00:28;;;;;;;10.25;2.00;;;4.40;99.90;;;;;;4985286;28;20050;-57
2022/12/27 04:02:54;;;;;;;11.98;2.22;;;4.20;99.90;;;;;;4984487;28;20049;-57
2022/12/27 04:05:19;;;;;;;7.15;1.85;;;4.30;99.90;;;;;;4984725;28;20039;-57
2022/12/27 04:35:08;;;;;;;11.03;2.33;;;3.90;99.90;;;;;;4965406;28;20341;-56
2022/12/27 04:37:34;;;;;;;9.15;2.58;;;4.10;99.90;;;;;;4966462;28;20859;-57
2022/12/27 04:56:38;;;;;;;8.75;1.73;;;4.00;99.90;;;;;;4969561;28;20426;-57
2022/12/27 05:02:03;;;;;;;7.13;1.90;;;3.80;99.90;;;;;;4969942;28;20054;-57
2022/12/27 05:04:31;;;;;;;9.35;1.95;;;3.80;99.90;;;;;;4968321;28;20320;-58
2022/12/27 05:06:57;;;;;;;8.88;1.75;;;3.60;99.90;;;;;;4969227;28;20489;-57
2022/12/27 05:14:55;;;;;;;11.07;1.80;;;3.80;99.90;;;;;;4969357;28;20059;-58
2022/12/27 05:17:20;;;;;;;8.98;2.17;;;4.10;99.90;;;;;;4968862;28;20047;-56
2022/12/27 05:19:46;;;;;;;9.00;1.70;;;3.70;99.90;;;;;;4968550;28;20042;-56
2022/12/27 05:27:40;;;;;;;10.48;1.70;;;3.70;99.90;;;;;;4968904;28;20055;-56
2022/12/27 05:30:06;;;;;;;9.55;1.70;;;3.60;99.90;;;;;;4969012;28;20502;-57
2022/12/27 05:32:32;;;;;;;8.02;2.00;;;3.50;99.90;;;;;;4968988;28;20137;-57
2022/12/27 05:34:57;;;;;;;10.05;2.30;;;3.30;99.90;;;;;;4968163;28;20198;-58
2022/12/27 05:37:23;;;;;;;10.63;2.60;;;3.60;99.90;;;;;;4968810;28;20508;-57
2022/12/27 05:39:49;;;;;;;8.13;2.05;;;3.30;99.90;;;;;;4969109;28;20039;-57
2022/12/27 05:42:14;;;;;;;8.25;2.20;;;3.60;99.90;;;;;;4968907;28;20189;-57
2022/12/27 05:44:40;;;;;;;12.30;2.60;;;3.50;99.90;;;;;;4968480;28;20121;-57
2022/12/27 05:47:05;;;;;;;8.57;1.80;;;3.50;99.90;;;;;;4967631;28;20567;-57
2022/12/27 05:49:31;;;;;;;9.15;2.38;;;3.60;99.90;;;;;;4967905;28;20058;-57
2022/12/27 05:51:57;;;;;;;12.63;2.22;;;3.70;99.90;;;;;;4968468;28;20471;-57
2022/12/27 05:54:22;;;;;;;11.43;3.15;;;3.80;99.90;;;;;;4967554;28;20050;-56
2022/12/27 05:56:48;;;;;;;10.98;1.92;;;3.60;99.90;;;;;;4968487;28;20039;-57
2022/12/27 05:59:13;;;;;;;15.23;3.42;;;3.40;99.90;;;;;;4968248;28;20054;-57
2022/12/27 06:01:39;;;;;;;12.98;2.10;;;3.30;99.90;;;;;;4968278;28;20046;-58
2022/12/27 06:04:05;;;;;;;11.20;2.40;;;3.80;99.90;;;;;;4968409;28;20038;-57
2022/12/27 06:06:30;;;;;;;11.43;2.22;;;4.10;99.90;;;;;;4967869;28;20047;-57
2022/12/27 06:08:56;;;;;;;5.05;1.52;;;3.50;99.90;;;;;;4968211;28;20055;-56
2022/12/27 06:11:21;;;;;;;8.45;2.35;;;3.60;99.90;;;;;;4967990;28;20561;-57
2022/12/27 06:13:50;;;;;;;8.15;1.77;;;3.80;99.90;;;;;;4968302;28;20153;-57
2022/12/27 06:16:16;;;;;;;8.65;1.75;;;3.40;99.90;;;;;;4966941;28;20065;-57
2022/12/27 06:18:42;;;;;;;6.40;1.88;;;3.40;99.90;;;;;;4968090;28;20186;-56
2022/12/27 06:21:19;;;;;;;7.57;1.77;;;4.00;99.90;;;;;;4969979;28;20138;-57
2022/12/27 06:23:46;;;;;;;7.88;2.15;;;3.60;99.90;;;;;;4973236;28;20042;-57
2022/12/27 06:26:24;;;;;;;9.38;2.20;;;3.50;99.90;;;;;;4967494;28;20054;-57
2022/12/27 06:28:50;;;;;;;8.48;2.33;;;3.30;99.90;;;;;;4967861;28;20094;-58
2022/12/27 06:31:17;;;;;;;9.52;2.20;;;3.20;99.90;;;;;;4967596;28;20081;-57
2022/12/27 06:33:43;;;;;;;9.75;2.40;;;3.60;99.90;;;;;;4967318;28;20046;-56
2022/12/27 06:36:12;;;;;;;8.38;1.98;;;3.40;99.90;;;;;;4966626;28;20042;-57
2022/12/27 06:38:38;;;;;;;10.27;2.17;;;3.00;99.90;;;;;;4967281;28;20046;-56
2022/12/27 06:41:05;;;;;;;7.50;2.10;;;3.10;99.90;;;;;;4967310;28;20757;-57
2022/12/27 06:43:31;;;;;;;9.80;2.17;;;3.10;99.90;;;;;;4967382;28;20057;-58
2022/12/27 06:45:58;;;;;;;9.60;2.50;;;3.30;99.90;;;;;;4967959;28;20705;-57
2022/12/27 06:48:24;;;;;;;9.20;2.13;;;3.40;99.90;;;;;;4967294;28;20050;-57
2022/12/27 06:50:50;;;;;;;14.25;2.83;;;3.50;99.90;;;;;;4966777;28;20046;-56
2022/12/27 06:53:16;;;;;;;8.75;2.00;;;3.70;99.90;;;;;;4967003;28;20035;-56
2022/12/27 06:55:41;;;;;;;12.63;2.70;;;3.20;99.90;;;;;;4966768;28;20053;-55
2022/12/27 06:58:07;;;;;;;12.20;2.53;;;3.40;99.90;;;;;;4967134;28;20047;-56
2022/12/27 07:00:33;;;;;;;10.98;2.78;;;3.30;99.90;;;;;;4967522;28;20035;-57
2022/12/27 07:02:58;;;;;;;9.43;2.45;;;3.30;99.90;;;;;;4967505;28;20130;-57
2022/12/27 07:05:24;;;;;;;11.27;2.50;;;3.10;99.90;;;;;;4966283;28;20340;-57
2022/12/27 07:07:52;;;;;;;8.68;2.85;;;3.20;99.90;;;;;;4967022;28;20509;-58
2022/12/27 07:10:18;;;;;;;11.27;2.45;;;3.10;99.90;;;;;;4967228;28;20051;-57
2022/12/27 07:12:44;;;;;;;14.40;3.17;;;3.40;99.90;;;;;;4966835;28;20058;-58
2022/12/27 07:15:09;;;;;;;11.15;2.83;;;3.20;99.90;;;;;;4967078;28;20031;-57
2022/12/27 07:17:36;;;;;;;12.95;2.70;;;3.40;99.90;;;;;;4966711;28;20112;-55
2022/12/27 07:20:03;;;;;;;10.00;2.40;;;3.50;99.90;;;;;;4966787;28;20498;-57
2022/12/27 07:22:29;;;;;;;9.32;2.30;;;3.20;99.90;;;;;;4977490;28;20098;-57
2022/12/27 07:24:54;;;;;;;8.27;2.17;;;3.00;99.90;;;;;;4967643;28;20047;-58
2022/12/27 07:27:20;;;;;;;13.60;2.65;;;3.00;99.90;;;;;;4966984;28;20050;-58
2022/12/27 07:29:46;;;;;;;13.13;3.05;;;3.40;99.90;;;;;;4966292;28;20045;-58
2022/12/27 07:32:11;;;;;;;10.38;2.25;;;3.10;99.90;;;;;;4966911;28;20042;-57
2022/12/27 07:34:37;;;;;;;10.98;2.80;;;3.40;99.90;;;;;;4965904;28;20077;-57
2022/12/27 07:37:03;;;;;;;8.40;2.40;;;3.20;99.90;;;;;;4966275;28;20062;-58
2022/12/27 07:39:28;;;;;;;11.63;2.65;;;3.10;99.90;;;;;;4967070;28;20046;-57
2022/12/27 07:41:54;;;;;;;10.52;2.63;;;3.30;99.90;;;;;;4966542;28;20047;-57
2022/12/27 07:44:20;;;;;;;16.73;2.80;;;3.20;99.90;;;;;;4966499;28;20058;-57
2022/12/27 07:46:45;;;;;;;10.45;2.50;;;3.30;99.90;;;;;;4964447;28;20053;-56
2022/12/27 07:49:11;;;;;;;8.73;2.20;;;3.20;99.90;;;;;;4965673;28;20043;-56
2022/12/27 07:51:37;;;;;;;11.38;2.67;;;3.10;99.90;;;;;;4966128;28;20058;-56
2022/12/27 07:54:02;;;;;;;9.25;2.25;;;3.20;99.90;;;;;;4965818;28;20651;-57
2022/12/27 07:56:28;;;;;;;6.75;2.10;;;3.20;99.90;;;;;;4966705;28;20047;-58
2022/12/27 07:58:56;;;;;;;6.13;1.92;;;3.00;99.90;;;;;;4966509;28;20050;-57
2022/12/27 08:01:25;;;;;;;10.27;2.20;;;3.60;99.90;;;;;;4966544;28;20047;-57
2022/12/27 08:03:51;;;;;;;10.85;2.00;;;3.00;99.90;;;;;;4966210;28;20077;-57
2022/12/27 08:06:31;;;;;;;5.68;2.05;;;3.20;99.90;;;;;;4965502;28;20599;-57
2022/12/27 08:09:01;;;;;;;6.07;1.98;;;3.60;99.90;;;;;;4965955;28;20058;-55
2022/12/27 08:11:27;;;;;;;9.73;2.40;;;3.20;99.90;;;;;;4964852;28;20047;-56
2022/12/27 08:13:53;;;;;;;15.65;3.22;;;3.30;99.90;;;;;;4967049;28;20065;-56
2022/12/27 08:16:21;;;;;;;12.80;2.67;;;3.00;99.90;;;;;;4966060;28;20145;-55
2022/12/27 08:18:47;;;;;;;12.50;2.80;;;3.00;99.90;;;;;;4969151;28;20063;-57
2022/12/27 08:21:13;;;;;;;12.40;2.80;;;3.50;99.90;;;;;;4973784;28;20054;-57
2022/12/27 08:23:39;;;;;;;12.35;2.90;;;3.10;99.90;;;;;;4976335;28;20043;-58
2022/12/27 08:26:06;;;;;;;9.55;2.45;;;3.00;99.90;;;;;;4970018;28;20051;-57
2022/12/27 08:28:32;;;;;;;12.30;2.88;;;3.60;99.90;;;;;;4970393;28;20077;-58
2022/12/27 08:30:59;;;;;;;13.40;2.78;;;3.10;99.90;;;;;;4969758;28;20125;-57
2022/12/27 08:33:25;;;;;;;10.52;2.60;;;3.30;99.90;;;;;;4969493;28;20047;-57
2022/12/27 08:35:51;;;;;;;10.60;3.20;;;3.40;99.90;;;;;;4968054;28;20047;-57
2022/12/27 08:38:17;;;;;;;11.45;3.20;;;3.20;99.90;;;;;;4970174;28;20058;-55
2022/12/27 08:40:44;;;;;;;12.88;3.45;;;3.40;99.90;;;;;;4969357;28;20053;-57
2022/12/27 08:43:10;;;;;;;13.93;3.25;;;3.50;99.90;;;;;;4968869;28;20078;-58
2022/12/27 08:45:38;;;;;;;11.02;3.22;;;3.20;99.90;;;;;;4968564;28;20485;-58
2022/12/27 08:48:04;;;;;;;12.07;3.05;;;3.20;99.90;;;;;;4970187;28;20060;-58
2022/12/27 08:50:31;;;;;;;12.88;3.67;;;3.40;99.90;;;;;;4968885;28;20043;-57
2022/12/27 08:53:00;;;;;;;14.48;3.63;;;3.60;99.90;;;;;;4969324;28;20051;-58
2022/12/27 08:55:27;;;;;;;14.73;3.20;;;3.70;99.90;;;;;;4969657;28;20047;-58
2022/12/27 08:57:56;;;;;;;15.15;3.92;;;4.30;99.90;;;;;;4982079;28;20160;-57
2022/12/27 09:00:23;;;;;;;14.25;3.08;;;3.70;99.90;;;;;;4988825;28;20052;-57
2022/12/27 09:02:49;;;;;;;14.00;3.35;;;3.60;99.90;;;;;;4988973;28;20109;-58
2022/12/27 09:05:14;;;;;;;14.75;3.47;;;4.10;99.90;;;;;;4987804;28;20466;-57
2022/12/27 09:07:40;;;;;;;12.70;2.95;;;3.90;99.90;;;;;;4988872;28;20472;-57
2022/12/27 09:10:06;;;;;;;8.05;2.72;;;3.90;99.90;;;;;;4988911;28;20053;-58
2022/12/27 09:12:33;;;;;;;11.93;2.85;;;4.10;99.90;;;;;;4988723;28;20053;-58
2022/12/27 09:14:58;;;;;;;12.60;3.33;;;4.10;99.90;;;;;;4987679;28;20121;-57
2022/12/27 09:17:24;;;;;;;12.20;3.20;;;4.20;99.90;;;;;;4988256;28;20141;-57
2022/12/27 09:19:50;;;;;;;12.52;2.83;;;4.10;99.90;;;;;;4988050;28;20085;-56
2022/12/27 09:22:16;;;;;;;13.02;3.70;;;4.30;99.90;;;;;;4979654;28;20077;-58
2022/12/27 09:24:42;;;;;;;10.93;2.90;;;4.20;99.90;;;;;;4968433;28;20109;-57
2022/12/27 09:27:07;;;;;;;9.35;3.45;;;4.40;99.90;;;;;;4968299;28;20442;-56
2022/12/27 09:29:33;;;;;;;9.68;2.45;;;4.20;99.90;;;;;;4967446;28;20039;-57
2022/12/27 09:31:59;;;;;;;10.05;2.90;;;4.50;99.90;;;;;;4967450;28;20505;-57
2022/12/27 09:34:24;;;;;;;15.48;3.10;;;4.50;99.90;;;;;;4968025;28;20103;-57
2022/12/27 09:36:50;;;;;;;12.63;2.75;;;4.60;99.90;;;;;;4968648;28;20039;-57
2022/12/27 09:39:16;;;;;;;13.45;3.00;;;4.70;99.90;;;;;;4968333;28;20734;-58
2022/12/27 09:42:02;;;;;;;15.10;3.28;;;5.00;99.90;;;;;;4968224;28;20050;-58
2022/12/27 09:44:40;;;;;;;10.35;2.83;;;5.60;99.90;;;;;;4967396;28;20093;-58
2022/12/27 09:47:18;;;;;;;9.60;2.35;;;6.00;99.90;;;;;;4968230;28;20445;-58
2022/12/27 09:50:05;;;;;;;10.75;2.53;;;6.20;99.90;;;;;;4966872;28;20086;-58
2022/12/27 09:52:46;;;;;;;13.52;2.90;;;6.20;99.90;;;;;;4967900;28;20051;-57
2022/12/27 09:55:20;;;;;;;9.20;2.47;;;6.20;99.90;;;;;;4965881;28;20090;-58
2022/12/27 09:57:46;;;;;;;12.53;2.90;;;6.80;99.90;;;;;;4966528;28;20047;-55
2022/12/27 10:00:23;;;;;;;10.07;2.33;;;6.50;99.90;;;;;;4975459;28;20046;-58
2022/12/27 10:02:49;;;;;;;11.35;2.55;;;6.60;99.90;;;;;;4985867;28;20129;-58
2022/12/27 10:05:21;;;;;;;11.63;2.67;;;6.80;99.90;;;;;;4984694;28;20066;-58
2022/12/27 10:08:14;;;;;;;8.50;2.38;;;6.90;99.90;;;;;;4978298;28;20112;-57
2022/12/27 10:10:54;;;;;;;5.65;2.00;;;6.80;99.90;;;;;;4990796;28;20516;-56
2022/12/27 10:13:22;;;;;;;10.48;2.47;;;6.70;99.90;;;;;;5005547;28;20045;-58
2022/12/27 10:16:16;;;;;;;10.23;3.13;;;7.40;99.90;;;;;;4986911;28;20382;-56
2022/12/27 10:19:20;;;;;;;9.52;2.38;;;7.10;99.90;;;;;;4985184;28;20497;-59
2022/12/27 10:22:15;;;;;;;8.70;1.98;;;7.50;99.90;;;;;;4979918;28;20058;-57
2022/12/27 10:24:54;;;;;;;9.82;2.83;;;7.00;99.90;;;;;;4962460;28;20051;-57
2022/12/27 10:27:26;;;;;;;10.27;2.78;;;7.40;99.90;;;;;;4983240;28;20046;-58
2022/12/27 10:29:57;;;;;;;10.38;2.70;;;7.10;99.90;;;;;;4986825;28;20052;-58
2022/12/27 10:32:24;;;;;;;11.57;3.20;;;7.40;99.90;;;;;;4986211;28;20042;-57
2022/12/27 10:34:56;;;;;;;7.97;2.47;;;7.70;99.90;;;;;;4986234;28;20125;-58
2022/12/27 10:37:22;;;;;;;11.70;2.50;;;7.30;99.90;;;;;;4986273;28;20457;-59
2022/12/27 10:39:48;;;;;;;10.75;2.83;;;7.60;99.90;;;;;;4985548;28;20465;-57
2022/12/27 10:42:32;;;;;;;9.50;3.05;;;7.80;99.90;;;;;;4986547;28;20077;-58
2022/12/27 10:45:26;;;;;;;9.52;2.90;;;7.90;99.90;;;;;;4985985;28;20042;-58
2022/12/27 10:47:54;;;;;;;11.68;2.63;;;7.40;99.90;;;;;;4986234;28;20050;-57
2022/12/27 10:50:23;;;;;;;11.50;3.17;;;7.40;99.90;;;;;;4985193;28;20064;-56
2022/12/27 10:52:50;;;;;;;12.88;3.33;;;7.20;99.90;;;;;;4986290;28;20413;-57
2022/12/27 10:55:33;;;;;;;9.55;2.80;;;7.60;99.90;;;;;;4986209;28;20038;-57
2022/12/27 10:58:17;;;;;;;8.88;2.60;;;7.40;99.90;;;;;;4984889;28;20121;-58
2022/12/27 11:00:53;;;;;;;9.65;2.72;;;7.50;99.90;;;;;;4996210;28;20046;-57
2022/12/27 11:03:19;;;;;;;6.63;1.75;;;7.50;99.90;;;;;;4994493;28;20043;-58
2022/12/27 11:06:02;;;;;;;10.43;2.50;;;7.20;99.90;;;;;;4985452;28;20111;-58
2022/12/27 11:08:28;;;;;;;8.10;2.03;;;7.60;99.90;;;;;;4985464;28;20058;-58
2022/12/27 11:11:14;;;;;;;10.82;2.28;;;7.30;99.90;;;;;;4986194;28;20053;-58
2022/12/27 11:13:41;;;;;;;10.52;2.83;;;7.50;99.90;;;;;;4985608;28;20192;-57
2022/12/27 11:16:13;;;;;;;8.45;2.72;;;7.90;99.90;;;;;;4985962;28;20916;-58
2022/12/27 11:18:48;;;;;;;11.23;2.53;;;8.10;99.90;;;;;;4985562;28;20181;-57
2022/12/27 11:21:16;;;;;;;11.90;2.50;;;7.90;99.90;;;;;;4979280;28;20050;-58
2022/12/27 11:23:45;;;;;;;10.95;2.65;;;8.00;99.90;;;;;;4971627;28;20058;-56
2022/12/27 11:26:32;;;;;;;8.15;1.80;;;8.10;99.90;;;;;;4965256;28;20055;-56
2022/12/27 11:29:00;;;;;;;6.28;2.10;;;8.00;99.90;;;;;;4966510;28;20057;-57
2022/12/27 11:31:30;;;;;;;9.52;2.80;;;8.00;99.90;;;;;;4966394;28;20600;-58
2022/12/27 11:34:00;;;;;;;11.00;2.72;;;7.70;99.90;;;;;;4963521;28;20054;-57
2022/12/27 11:36:39;;;;;;;8.38;1.95;;;7.70;99.90;;;;;;4966094;28;20493;-58
2022/12/27 11:39:06;;;;;;;10.88;2.85;;;7.50;99.90;;;;;;4966293;28;20043;-58
2022/12/27 11:41:50;;;;;;;8.57;2.05;;;7.30;99.90;;;;;;4965996;28;20043;-57
2022/12/27 11:44:21;;;;;;;12.65;2.80;;;7.20;99.90;;;;;;4966606;28;20047;-57
2022/12/27 11:46:54;;;;;;;15.50;2.65;;;7.20;99.90;;;;;;4965991;28;20078;-58
2022/12/27 11:49:31;;;;;;;11.13;2.67;;;7.00;99.90;;;;;;4966041;28;20042;-57
2022/12/27 11:52:15;;;;;;;8.43;2.17;;;6.80;99.90;;;;;;4965437;28;20633;-57
2022/12/27 11:54:56;;;;;;;9.30;2.40;;;6.50;99.90;;;;;;4966533;28;20086;-58
2022/12/27 11:58:19;;;;;;;9.05;2.95;;;6.40;99.90;;;;;;4965973;28;20146;-58
2022/12/27 12:01:12;;;;;;;8.23;2.75;;;6.40;99.90;;;;;;4906345;29;20055;-60
2022/12/27 12:03:47;;;;;;;15.45;2.92;;;6.80;99.90;;;;;;4904692;29;20099;-67
2022/12/27 12:06:43;;;;;;;8.38;2.42;;;7.00;99.90;;;;;;4957416;28;20055;-65
2022/12/27 12:09:21;;;;;;;9.13;3.13;;;7.00;99.90;;;;;;4965700;28;20059;-66
2022/12/27 12:12:21;;;;;;;8.20;2.67;;;7.50;99.90;;;;;;4966295;28;20403;-66
2022/12/27 12:15:10;;;;;;;12.55;3.25;;;7.20;99.90;;;;;;4942440;28;20051;-66
2022/12/27 12:17:53;;;;;;;11.43;2.63;;;7.30;99.90;;;;;;4965857;28;20439;-66
2022/12/27 12:20:47;;;;;;;10.38;2.30;;;7.40;99.90;;;;;;4965916;28;20518;-66
2022/12/27 12:23:19;;;;;;;9.73;2.78;;;7.30;99.90;;;;;;4975230;28;20093;-66
2022/12/27 12:26:22;;;;;;;10.77;2.90;;;7.40;99.90;;;;;;4966552;28;20049;-66
2022/12/27 12:29:09;;;;;;;9.40;2.25;;;7.10;99.90;;;;;;4962990;28;20054;-66
2022/12/27 12:31:44;;;;;;;10.75;2.55;;;7.20;99.90;;;;;;4966129;28;20042;-66
2022/12/27 12:34:29;;;;;;;;;;;6.90;99.90;;;;;;4966046;28;20086;-66
2022/12/27 12:37:23;;;;;;;8.80;2.27;;;6.80;99.90;;;;;;4965775;28;20128;-66
2022/12/27 12:39:56;;;;;;;7.55;2.30;;;6.70;99.90;;;;;;4964454;28;20322;-66
2022/12/27 12:42:50;;;;;;;6.53;2.10;;;6.70;99.90;;;;;;4966138;28;20058;-69
2022/12/27 12:45:29;;;;;;;10.07;2.47;;;6.90;99.90;;;;;;4964798;28;20086;-70
2022/12/27 12:48:11;;;;;;;9.85;2.80;;;7.10;99.90;;;;;;4965839;28;20050;-74
2022/12/27 12:51:17;;;;;;;11.55;2.20;;;7.20;99.90;;;;;;4965074;28;20462;-74
2022/12/27 12:54:28;;;;;;;6.78;1.77;;;7.20;99.90;;;;;;4966010;28;20054;-71
2022/12/27 12:57:12;;;;;;;10.90;2.75;;;7.20;99.90;;;;;;4965791;28;20110;-70
2022/12/27 12:59:59;;;;;;;8.65;2.30;;;7.10;99.90;;;;;;4964751;28;20095;-71
2022/12/27 13:03:26;;;;;;;9.68;2.17;;;7.20;99.90;;;;;;4965275;28;20047;-71
2022/12/27 13:06:10;;;;;;;10.50;2.25;;;7.20;99.90;;;;;;4890203;29;20453;-70
2022/12/27 13:09:19;;;;;;;9.65;2.35;;;7.00;99.90;;;;;;4890047;29;20060;-74
2022/12/27 13:12:02;;;;;;;12.15;2.75;;;6.90;99.90;;;;;;4876565;28;20117;-73
2022/12/27 13:15:14;;;;;;;10.23;2.67;;;6.80;99.90;;;;;;4968147;28;20564;-69
2022/12/27 13:17:58;;;;;;;5.55;1.45;;;6.90;99.90;;;;;;4956039;28;20187;-71
2022/12/27 13:20:41;;;;;;;7.57;2.25;;;6.70;99.90;;;;;;4970951;28;20399;-71
2022/12/27 13:23:45;;;;;;;8.38;2.25;;;6.50;99.90;;;;;;4975651;28;20098;-71
2022/12/27 13:26:44;;;;;;;9.55;2.63;;;6.60;99.90;;;;;;4961580;28;20141;-72
2022/12/27 13:29:55;;;;;;;12.13;2.17;;;6.60;99.90;;;;;;4968610;28;20157;-72
2022/12/27 13:32:53;;;;;;;7.70;2.30;;;6.50;99.90;;;;;;4906123;29;20488;-72
2022/12/27 13:35:30;;;;;;;6.82;1.98;;;6.40;99.90;;;;;;4926928;29;20091;-72
2022/12/27 13:38:15;;;;;;;9.40;2.45;;;6.40;99.90;;;;;;4961390;28;20069;-67
2022/12/27 13:41:01;;;;;;;10.52;2.80;;;6.40;99.90;;;;;;4979245;28;20055;-72
2022/12/27 13:44:04;;;;;;;8.48;2.42;;;6.30;99.90;;;;;;4971165;28;20047;-70
2022/12/27 13:46:51;;;;;;;14.65;3.30;;;6.40;99.90;;;;;;4974298;28;20061;-72
2022/12/27 13:49:49;;;;;;;10.60;2.97;;;6.30;99.90;;;;;;4967810;28;20043;-71
2022/12/27 13:52:53;;;;;;;10.45;3.13;;;6.20;99.90;;;;;;4966690;28;20117;-72
2022/12/27 13:55:57;;;;;;;14.30;4.18;;;6.10;99.90;;;;;;4968826;28;20061;-72
2022/12/27 13:58:34;;;;;;;9.88;3.03;;;6.10;99.90;;;;;;4967911;28;20043;-71
2022/12/27 14:01:44;;;;;;;14.57;3.40;;;6.00;99.90;;;;;;4968479;28;20066;-68
2022/12/27 14:04:22;;;;;;;9.98;3.13;;;6.00;99.90;;;;;;4939265;28;20062;-66
2022/12/27 14:07:06;;;;;;;8.68;3.22;;;6.10;99.90;;;;;;4966480;28;20066;-71
2022/12/27 14:10:03;;;;;;;10.40;3.53;;;6.00;99.90;;;;;;4973505;28;20058;-70
2022/12/27 14:12:56;;;;;;;11.95;3.75;;;5.90;99.90;;;;;;4973899;28;20313;-72
2022/12/27 14:16:01;;;;;;;12.32;4.38;;;5.90;99.90;;;;;;4973457;28;20051;-68
2022/12/27 14:18:33;;;;;;;7.30;3.37;;;5.20;99.90;;;;;;4956946;28;20055;-71
2022/12/27 14:21:07;;;;;;;10.88;4.13;;;5.80;99.90;;;;;;4973226;28;20058;-71
2022/12/27 14:23:45;;;;;;;9.88;3.60;;;5.90;99.90;;;;;;4973858;28;20046;-69
2022/12/27 14:26:45;;;;;;;12.85;4.32;;;5.90;99.90;;;;;;4973510;28;20050;-70
2022/12/27 14:29:38;;;;;;;10.88;3.38;;;5.80;99.90;;;;;;4973322;28;20391;-68
2022/12/27 14:32:25;;;;;;;9.05;3.83;;;5.80;99.90;;;;;;4972327;28;20047;-73
2022/12/27 14:35:09;;;;;;;11.93;3.75;;;5.80;99.90;;;;;;4972123;28;20042;-75
2022/12/27 14:38:07;;;;;;;11.30;4.15;;;5.80;99.90;;;;;;4971646;28;20088;-74
2022/12/27 14:40:52;;;;;;;12.07;4.40;;;5.70;99.90;;;;;;4972737;28;20046;-71
2022/12/27 14:43:40;;;;;;;11.63;5.57;;;5.70;99.90;;;;;;4973268;28;20385;-72
2022/12/27 14:46:36;;;;;;;13.82;5.43;;;5.60;99.90;;;;;;4973248;28;20062;-75
2022/12/27 14:49:16;;;;;;;18.48;6.60;;;5.80;99.90;;;;;;4972838;28;20078;-74
2022/12/27 14:51:54;;;;;;;13.30;4.93;;;5.60;99.90;;;;;;4973016;28;20089;-72
2022/12/27 14:54:39;;;;;;;14.40;6.57;;;5.80;99.90;;;;;;4972852;28;20129;-73
2022/12/27 14:57:16;;;;;;;12.82;6.32;;;5.70;99.90;;;;;;4978670;28;20243;-73
2022/12/27 14:59:57;;;;;;;11.32;6.57;;;5.60;99.90;;;;;;4971013;28;20103;-67
2022/12/27 15:02:44;;;;;;;14.75;7.45;;;5.80;99.90;;;;;;4972856;28;20035;-71
2022/12/27 15:05:22;;;;;;;16.40;8.30;;;5.70;99.90;;;;;;4969235;28;20854;-76
2022/12/27 15:08:24;;;;;;;15.23;8.68;;;5.60;99.90;;;;;;4972686;28;20699;-75
2022/12/27 15:11:11;;;;;;;20.65;10.07;;;5.70;99.90;;;;;;4972375;28;20097;-73